sensor_id;sensor_type;location;lat;lon;timestamp;P1;durP1;ratioP1;P2;durP2;ratioP2
5730;SDS011;2890;51.950;7.668;2023-03-01T00:01:25;9.27;;;6.17;;
5730;SDS011;2890;51.950;7.668;2023-03-01T00:03:53;7.27;;;5.40;;
5730;SDS011;2890;51.950;7.668;2023-03-01T00:06:20;8.33;;;6.17;;
5730;SDS011;2890;51.950;7.668;2023-03-01T00:08:48;8.37;;;6.70;;
5730;SDS011;2890;51.950;7.668;2023-03-01T00:11:16;8.63;;;6.03;;
5730;SDS011;2890;51.950;7.668;2023-03-01T00:13:43;9.23;;;7.37;;
5730;SDS011;2890;51.950;7.668;2023-03-01T00:16:12;7.80;;;6.00;;
5730;SDS011;2890;51.950;7.668;2023-03-01T00:18:39;10.43;;;6.70;;
5730;SDS011;2890;51.950;7.668;2023-03-01T00:21:06;9.17;;;6.90;;
5730;SDS011;2890;51.950;7.668;2023-03-01T00:23:33;9.77;;;6.70;;
5730;SDS011;2890;51.950;7.668;2023-03-01T00:26:04;9.00;;;6.87;;
5730;SDS011;2890;51.950;7.668;2023-03-01T00:28:32;9.73;;;6.90;;
5730;SDS011;2890;51.950;7.668;2023-03-01T00:31:02;9.23;;;7.23;;
5730;SDS011;2890;51.950;7.668;2023-03-01T00:33:29;9.17;;;6.70;;
5730;SDS011;2890;51.950;7.668;2023-03-01T00:35:57;12.30;;;7.70;;
5730;SDS011;2890;51.950;7.668;2023-03-01T00:38:24;8.47;;;6.77;;
5730;SDS011;2890;51.950;7.668;2023-03-01T00:40:50;9.40;;;6.77;;
5730;SDS011;2890;51.950;7.668;2023-03-01T00:43:18;9.03;;;7.60;;
5730;SDS011;2890;51.950;7.668;2023-03-01T00:45:45;10.73;;;7.50;;
5730;SDS011;2890;51.950;7.668;2023-03-01T00:48:11;11.77;;;7.10;;
5730;SDS011;2890;51.950;7.668;2023-03-01T00:50:38;11.77;;;7.87;;
5730;SDS011;2890;51.950;7.668;2023-03-01T00:53:04;11.10;;;7.73;;
5730;SDS011;2890;51.950;7.668;2023-03-01T00:55:31;9.87;;;7.33;;
5730;SDS011;2890;51.950;7.668;2023-03-01T00:57:59;9.20;;;7.43;;
5730;SDS011;2890;51.950;7.668;2023-03-01T01:00:27;9.90;;;7.43;;
5730;SDS011;2890;51.950;7.668;2023-03-01T01:02:53;10.17;;;7.27;;
5730;SDS011;2890;51.950;7.668;2023-03-01T01:05:20;9.93;;;7.90;;
5730;SDS011;2890;51.950;7.668;2023-03-01T01:07:47;12.80;;;7.33;;
5730;SDS011;2890;51.950;7.668;2023-03-01T01:10:14;11.43;;;8.30;;
5730;SDS011;2890;51.950;7.668;2023-03-01T01:12:45;12.40;;;8.67;;
5730;SDS011;2890;51.950;7.668;2023-03-01T01:15:12;11.77;;;9.83;;
5730;SDS011;2890;51.950;7.668;2023-03-01T01:17:42;15.10;;;9.00;;
5730;SDS011;2890;51.950;7.668;2023-03-01T01:20:10;10.87;;;9.20;;
5730;SDS011;2890;51.950;7.668;2023-03-01T01:22:37;12.47;;;10.10;;
5730;SDS011;2890;51.950;7.668;2023-03-01T01:25:03;21.50;;;9.50;;
5730;SDS011;2890;51.950;7.668;2023-03-01T01:27:33;10.90;;;8.70;;
5730;SDS011;2890;51.950;7.668;2023-03-01T01:29:59;16.43;;;10.47;;
5730;SDS011;2890;51.950;7.668;2023-03-01T01:32:26;15.57;;;10.30;;
5730;SDS011;2890;51.950;7.668;2023-03-01T01:34:54;11.93;;;10.57;;
5730;SDS011;2890;51.950;7.668;2023-03-01T01:37:23;19.53;;;11.27;;
5730;SDS011;2890;51.950;7.668;2023-03-01T01:39:55;13.57;;;10.83;;
5730;SDS011;2890;51.950;7.668;2023-03-01T01:42:22;14.70;;;10.77;;
5730;SDS011;2890;51.950;7.668;2023-03-01T01:47:50;17.27;;;12.67;;
5730;SDS011;2890;51.950;7.668;2023-03-01T01:50:18;15.50;;;12.53;;
5730;SDS011;2890;51.950;7.668;2023-03-01T01:52:45;20.60;;;12.97;;
5730;SDS011;2890;51.950;7.668;2023-03-01T01:55:16;17.77;;;11.80;;
5730;SDS011;2890;51.950;7.668;2023-03-01T01:57:46;14.37;;;11.10;;
5730;SDS011;2890;51.950;7.668;2023-03-01T02:00:16;15.40;;;10.63;;
5730;SDS011;2890;51.950;7.668;2023-03-01T02:02:44;19.17;;;10.43;;
5730;SDS011;2890;51.950;7.668;2023-03-01T02:05:15;10.83;;;8.83;;
5730;SDS011;2890;51.950;7.668;2023-03-01T02:07:46;15.73;;;10.27;;
5730;SDS011;2890;51.950;7.668;2023-03-01T02:10:13;11.77;;;9.30;;
5730;SDS011;2890;51.950;7.668;2023-03-01T02:12:40;17.83;;;10.00;;
5730;SDS011;2890;51.950;7.668;2023-03-01T02:15:07;8.80;;;7.83;;
5730;SDS011;2890;51.950;7.668;2023-03-01T02:17:34;12.90;;;9.30;;
5730;SDS011;2890;51.950;7.668;2023-03-01T02:20:04;12.67;;;8.50;;
5730;SDS011;2890;51.950;7.668;2023-03-01T02:22:37;10.50;;;7.97;;
5730;SDS011;2890;51.950;7.668;2023-03-01T02:25:07;11.90;;;8.43;;
5730;SDS011;2890;51.950;7.668;2023-03-01T02:27:40;10.83;;;7.93;;
5730;SDS011;2890;51.950;7.668;2023-03-01T02:30:13;11.93;;;8.23;;
5730;SDS011;2890;51.950;7.668;2023-03-01T02:32:39;10.70;;;8.00;;
5730;SDS011;2890;51.950;7.668;2023-03-01T02:35:07;10.67;;;8.53;;
5730;SDS011;2890;51.950;7.668;2023-03-01T02:37:34;15.30;;;7.60;;
5730;SDS011;2890;51.950;7.668;2023-03-01T02:40:02;10.40;;;8.03;;
5730;SDS011;2890;51.950;7.668;2023-03-01T02:42:31;11.30;;;7.33;;
5730;SDS011;2890;51.950;7.668;2023-03-01T02:45:00;12.67;;;8.07;;
5730;SDS011;2890;51.950;7.668;2023-03-01T02:47:27;11.53;;;7.70;;
5730;SDS011;2890;51.950;7.668;2023-03-01T02:49:54;9.20;;;7.60;;
5730;SDS011;2890;51.950;7.668;2023-03-01T02:52:26;11.60;;;7.70;;
5730;SDS011;2890;51.950;7.668;2023-03-01T02:55:00;10.00;;;7.57;;
5730;SDS011;2890;51.950;7.668;2023-03-01T02:57:28;9.10;;;7.57;;
5730;SDS011;2890;51.950;7.668;2023-03-01T02:59:55;11.80;;;7.93;;
5730;SDS011;2890;51.950;7.668;2023-03-01T03:02:23;9.60;;;7.57;;
5730;SDS011;2890;51.950;7.668;2023-03-01T03:05:02;10.57;;;7.07;;
5730;SDS011;2890;51.950;7.668;2023-03-01T03:07:31;9.07;;;6.40;;
5730;SDS011;2890;51.950;7.668;2023-03-01T03:09:58;9.67;;;7.10;;
5730;SDS011;2890;51.950;7.668;2023-03-01T03:12:24;13.20;;;7.50;;
5730;SDS011;2890;51.950;7.668;2023-03-01T03:14:51;12.83;;;7.07;;
5730;SDS011;2890;51.950;7.668;2023-03-01T03:17:17;11.13;;;6.70;;
5730;SDS011;2890;51.950;7.668;2023-03-01T03:19:44;8.23;;;6.37;;
5730;SDS011;2890;51.950;7.668;2023-03-01T03:22:12;12.80;;;7.17;;
5730;SDS011;2890;51.950;7.668;2023-03-01T03:24:38;10.20;;;7.70;;
5730;SDS011;2890;51.950;7.668;2023-03-01T03:27:05;11.70;;;7.93;;
5730;SDS011;2890;51.950;7.668;2023-03-01T03:29:32;11.83;;;8.57;;
5730;SDS011;2890;51.950;7.668;2023-03-01T03:31:58;12.17;;;8.00;;
5730;SDS011;2890;51.950;7.668;2023-03-01T03:34:25;13.03;;;8.20;;
5730;SDS011;2890;51.950;7.668;2023-03-01T03:36:52;13.33;;;9.00;;
5730;SDS011;2890;51.950;7.668;2023-03-01T03:39:23;15.57;;;8.97;;
5730;SDS011;2890;51.950;7.668;2023-03-01T03:41:49;13.03;;;9.87;;
5730;SDS011;2890;51.950;7.668;2023-03-01T03:44:16;16.67;;;12.10;;
5730;SDS011;2890;51.950;7.668;2023-03-01T03:46:42;21.10;;;12.90;;
5730;SDS011;2890;51.950;7.668;2023-03-01T03:49:08;17.00;;;11.97;;
5730;SDS011;2890;51.950;7.668;2023-03-01T03:51:35;16.83;;;11.70;;
5730;SDS011;2890;51.950;7.668;2023-03-01T03:54:02;19.40;;;12.17;;
5730;SDS011;2890;51.950;7.668;2023-03-01T03:56:30;12.63;;;10.67;;
5730;SDS011;2890;51.950;7.668;2023-03-01T03:58:56;14.70;;;10.93;;
5730;SDS011;2890;51.950;7.668;2023-03-01T04:01:23;13.20;;;10.17;;
5730;SDS011;2890;51.950;7.668;2023-03-01T04:03:49;15.37;;;9.67;;
5730;SDS011;2890;51.950;7.668;2023-03-01T04:06:19;15.70;;;9.37;;
5730;SDS011;2890;51.950;7.668;2023-03-01T04:08:45;10.90;;;8.40;;
5730;SDS011;2890;51.950;7.668;2023-03-01T04:11:15;18.13;;;8.63;;
5730;SDS011;2890;51.950;7.668;2023-03-01T04:13:56;13.37;;;8.40;;
5730;SDS011;2890;51.950;7.668;2023-03-01T04:16:25;10.13;;;7.90;;
5730;SDS011;2890;51.950;7.668;2023-03-01T04:18:51;13.00;;;7.93;;
5730;SDS011;2890;51.950;7.668;2023-03-01T04:21:19;9.03;;;7.23;;
5730;SDS011;2890;51.950;7.668;2023-03-01T04:23:46;20.03;;;8.83;;
5730;SDS011;2890;51.950;7.668;2023-03-01T04:26:12;13.33;;;6.90;;
5730;SDS011;2890;51.950;7.668;2023-03-01T04:28:40;10.03;;;7.17;;
5730;SDS011;2890;51.950;7.668;2023-03-01T04:31:12;12.20;;;7.63;;
5730;SDS011;2890;51.950;7.668;2023-03-01T04:33:40;13.07;;;8.03;;
5730;SDS011;2890;51.950;7.668;2023-03-01T04:36:08;10.43;;;7.87;;
5730;SDS011;2890;51.950;7.668;2023-03-01T04:38:35;11.43;;;7.27;;
5730;SDS011;2890;51.950;7.668;2023-03-01T04:41:03;10.70;;;6.93;;
5730;SDS011;2890;51.950;7.668;2023-03-01T04:43:30;11.03;;;7.70;;
5730;SDS011;2890;51.950;7.668;2023-03-01T04:45:59;11.17;;;7.60;;
5730;SDS011;2890;51.950;7.668;2023-03-01T04:48:29;8.70;;;6.90;;
5730;SDS011;2890;51.950;7.668;2023-03-01T04:50:56;16.93;;;7.27;;
5730;SDS011;2890;51.950;7.668;2023-03-01T04:53:22;14.77;;;7.70;;
5730;SDS011;2890;51.950;7.668;2023-03-01T04:55:49;8.53;;;6.83;;
5730;SDS011;2890;51.950;7.668;2023-03-01T04:58:16;12.57;;;7.27;;
5730;SDS011;2890;51.950;7.668;2023-03-01T05:00:42;9.43;;;6.67;;
5730;SDS011;2890;51.950;7.668;2023-03-01T05:03:09;10.93;;;7.93;;
5730;SDS011;2890;51.950;7.668;2023-03-01T05:05:37;10.13;;;7.30;;
5730;SDS011;2890;51.950;7.668;2023-03-01T05:08:05;12.63;;;9.00;;
5730;SDS011;2890;51.950;7.668;2023-03-01T05:10:33;15.30;;;10.50;;
5730;SDS011;2890;51.950;7.668;2023-03-01T05:13:01;16.40;;;10.50;;
5730;SDS011;2890;51.950;7.668;2023-03-01T05:15:28;22.07;;;13.77;;
5730;SDS011;2890;51.950;7.668;2023-03-01T05:17:57;27.80;;;15.37;;
5730;SDS011;2890;51.950;7.668;2023-03-01T05:20:24;20.20;;;12.27;;
5730;SDS011;2890;51.950;7.668;2023-03-01T05:22:54;20.40;;;11.90;;
5730;SDS011;2890;51.950;7.668;2023-03-01T05:25:21;19.43;;;11.93;;
5730;SDS011;2890;51.950;7.668;2023-03-01T05:27:48;17.90;;;12.23;;
5730;SDS011;2890;51.950;7.668;2023-03-01T05:30:14;18.37;;;11.27;;
5730;SDS011;2890;51.950;7.668;2023-03-01T05:32:42;16.93;;;10.43;;
5730;SDS011;2890;51.950;7.668;2023-03-01T05:35:11;14.93;;;10.57;;
5730;SDS011;2890;51.950;7.668;2023-03-01T05:37:39;16.13;;;9.30;;
5730;SDS011;2890;51.950;7.668;2023-03-01T05:40:09;15.77;;;9.57;;
5730;SDS011;2890;51.950;7.668;2023-03-01T05:42:40;11.93;;;8.63;;
5730;SDS011;2890;51.950;7.668;2023-03-01T05:45:08;16.77;;;9.23;;
5730;SDS011;2890;51.950;7.668;2023-03-01T05:47:35;14.97;;;8.57;;
5730;SDS011;2890;51.950;7.668;2023-03-01T05:50:02;11.00;;;8.63;;
5730;SDS011;2890;51.950;7.668;2023-03-01T05:52:28;12.20;;;8.93;;
5730;SDS011;2890;51.950;7.668;2023-03-01T05:54:55;12.23;;;8.80;;
5730;SDS011;2890;51.950;7.668;2023-03-01T05:57:22;16.50;;;9.27;;
5730;SDS011;2890;51.950;7.668;2023-03-01T05:59:49;16.53;;;9.87;;
5730;SDS011;2890;51.950;7.668;2023-03-01T06:02:15;15.63;;;9.87;;
5730;SDS011;2890;51.950;7.668;2023-03-01T06:04:42;17.60;;;10.63;;
5730;SDS011;2890;51.950;7.668;2023-03-01T06:07:08;16.13;;;10.83;;
5730;SDS011;2890;51.950;7.668;2023-03-01T06:09:35;11.17;;;8.33;;
5730;SDS011;2890;51.950;7.668;2023-03-01T06:12:01;17.83;;;9.57;;
5730;SDS011;2890;51.950;7.668;2023-03-01T06:14:29;17.93;;;9.47;;
5730;SDS011;2890;51.950;7.668;2023-03-01T06:16:57;12.63;;;9.13;;
5730;SDS011;2890;51.950;7.668;2023-03-01T06:19:24;12.90;;;9.23;;
5730;SDS011;2890;51.950;7.668;2023-03-01T06:21:50;14.83;;;9.40;;
5730;SDS011;2890;51.950;7.668;2023-03-01T06:24:17;13.63;;;9.70;;
5730;SDS011;2890;51.950;7.668;2023-03-01T06:26:43;28.07;;;10.37;;
5730;SDS011;2890;51.950;7.668;2023-03-01T06:29:10;13.17;;;9.10;;
5730;SDS011;2890;51.950;7.668;2023-03-01T06:31:38;9.37;;;8.03;;
5730;SDS011;2890;51.950;7.668;2023-03-01T06:34:04;14.13;;;8.37;;
5730;SDS011;2890;51.950;7.668;2023-03-01T06:36:31;10.17;;;7.27;;
5730;SDS011;2890;51.950;7.668;2023-03-01T06:38:57;10.40;;;7.87;;
5730;SDS011;2890;51.950;7.668;2023-03-01T06:41:24;12.33;;;7.90;;
5730;SDS011;2890;51.950;7.668;2023-03-01T06:43:50;12.17;;;8.00;;
5730;SDS011;2890;51.950;7.668;2023-03-01T06:46:17;14.60;;;7.60;;
5730;SDS011;2890;51.950;7.668;2023-03-01T06:48:45;11.70;;;8.00;;
5730;SDS011;2890;51.950;7.668;2023-03-01T06:51:12;10.57;;;8.13;;
5730;SDS011;2890;51.950;7.668;2023-03-01T06:53:38;10.87;;;7.07;;
5730;SDS011;2890;51.950;7.668;2023-03-01T06:56:05;11.63;;;7.33;;
5730;SDS011;2890;51.950;7.668;2023-03-01T06:58:32;17.03;;;9.27;;
5730;SDS011;2890;51.950;7.668;2023-03-01T07:01:02;10.00;;;6.90;;
5730;SDS011;2890;51.950;7.668;2023-03-01T07:03:31;14.37;;;8.10;;
5730;SDS011;2890;51.950;7.668;2023-03-01T07:05:59;11.70;;;7.20;;
5730;SDS011;2890;51.950;7.668;2023-03-01T07:08:26;16.90;;;8.73;;
5730;SDS011;2890;51.950;7.668;2023-03-01T07:10:55;16.10;;;8.43;;
5730;SDS011;2890;51.950;7.668;2023-03-01T07:13:22;28.00;;;9.40;;
5730;SDS011;2890;51.950;7.668;2023-03-01T07:15:48;15.00;;;8.43;;
5730;SDS011;2890;51.950;7.668;2023-03-01T07:18:15;15.47;;;7.90;;
5730;SDS011;2890;51.950;7.668;2023-03-01T07:20:41;11.93;;;7.73;;
5730;SDS011;2890;51.950;7.668;2023-03-01T07:23:09;11.67;;;7.77;;
5730;SDS011;2890;51.950;7.668;2023-03-01T07:25:36;11.87;;;7.83;;
5730;SDS011;2890;51.950;7.668;2023-03-01T07:28:02;13.87;;;7.43;;
5730;SDS011;2890;51.950;7.668;2023-03-01T07:30:29;11.17;;;7.30;;
5730;SDS011;2890;51.950;7.668;2023-03-01T07:32:56;11.53;;;7.20;;
5730;SDS011;2890;51.950;7.668;2023-03-01T07:35:23;11.10;;;7.00;;
5730;SDS011;2890;51.950;7.668;2023-03-01T07:37:51;10.33;;;6.43;;
5730;SDS011;2890;51.950;7.668;2023-03-01T07:40:20;10.37;;;6.40;;
5730;SDS011;2890;51.950;7.668;2023-03-01T07:42:46;10.47;;;5.83;;
5730;SDS011;2890;51.950;7.668;2023-03-01T07:45:13;10.73;;;6.00;;
5730;SDS011;2890;51.950;7.668;2023-03-01T07:47:39;9.20;;;5.77;;
5730;SDS011;2890;51.950;7.668;2023-03-01T07:50:06;7.83;;;5.23;;
5730;SDS011;2890;51.950;7.668;2023-03-01T07:52:33;8.93;;;5.97;;
5730;SDS011;2890;51.950;7.668;2023-03-01T07:54:59;7.83;;;5.83;;
5730;SDS011;2890;51.950;7.668;2023-03-01T07:57:27;9.57;;;5.90;;
5730;SDS011;2890;51.950;7.668;2023-03-01T07:59:53;7.38;;;5.20;;
5730;SDS011;2890;51.950;7.668;2023-03-01T08:02:20;8.10;;;5.82;;
5730;SDS011;2890;51.950;7.668;2023-03-01T08:04:46;7.67;;;5.50;;
5730;SDS011;2890;51.950;7.668;2023-03-01T08:07:13;6.88;;;5.32;;
5730;SDS011;2890;51.950;7.668;2023-03-01T08:09:39;6.90;;;5.05;;
5730;SDS011;2890;51.950;7.668;2023-03-01T08:12:05;6.07;;;4.70;;
5730;SDS011;2890;51.950;7.668;2023-03-01T08:14:33;5.85;;;5.13;;
5730;SDS011;2890;51.950;7.668;2023-03-01T08:17:00;6.88;;;5.10;;
5730;SDS011;2890;51.950;7.668;2023-03-01T08:19:28;6.60;;;5.03;;
5730;SDS011;2890;51.950;7.668;2023-03-01T08:21:55;9.70;;;5.60;;
5730;SDS011;2890;51.950;7.668;2023-03-01T08:24:23;8.18;;;5.68;;
5730;SDS011;2890;51.950;7.668;2023-03-01T08:26:49;8.85;;;6.28;;
5730;SDS011;2890;51.950;7.668;2023-03-01T08:29:16;8.65;;;5.40;;
5730;SDS011;2890;51.950;7.668;2023-03-01T08:31:44;9.88;;;5.78;;
5730;SDS011;2890;51.950;7.668;2023-03-01T08:34:11;6.93;;;5.80;;
5730;SDS011;2890;51.950;7.668;2023-03-01T08:36:39;9.20;;;6.03;;
5730;SDS011;2890;51.950;7.668;2023-03-01T08:39:07;8.40;;;5.60;;
5730;SDS011;2890;51.950;7.668;2023-03-01T08:41:35;6.32;;;5.53;;
5730;SDS011;2890;51.950;7.668;2023-03-01T08:44:01;8.27;;;5.50;;
5730;SDS011;2890;51.950;7.668;2023-03-01T08:46:28;6.45;;;5.70;;
5730;SDS011;2890;51.950;7.668;2023-03-01T08:48:57;8.48;;;5.60;;
5730;SDS011;2890;51.950;7.668;2023-03-01T08:51:23;8.77;;;5.63;;
5730;SDS011;2890;51.950;7.668;2023-03-01T08:53:50;6.80;;;6.10;;
5730;SDS011;2890;51.950;7.668;2023-03-01T08:56:17;6.95;;;5.80;;
5730;SDS011;2890;51.950;7.668;2023-03-01T08:58:44;7.95;;;6.63;;
5730;SDS011;2890;51.950;7.668;2023-03-01T09:01:11;7.05;;;5.70;;
5730;SDS011;2890;51.950;7.668;2023-03-01T09:03:39;6.93;;;6.22;;
5730;SDS011;2890;51.950;7.668;2023-03-01T09:06:07;6.53;;;5.63;;
5730;SDS011;2890;51.950;7.668;2023-03-01T09:08:34;6.18;;;5.57;;
5730;SDS011;2890;51.950;7.668;2023-03-01T09:11:01;6.30;;;5.57;;
5730;SDS011;2890;51.950;7.668;2023-03-01T09:13:28;7.10;;;5.78;;
5730;SDS011;2890;51.950;7.668;2023-03-01T09:15:58;7.97;;;6.28;;
5730;SDS011;2890;51.950;7.668;2023-03-01T09:18:25;7.70;;;5.53;;
5730;SDS011;2890;51.950;7.668;2023-03-01T09:20:51;6.97;;;6.10;;
5730;SDS011;2890;51.950;7.668;2023-03-01T09:23:23;8.00;;;6.43;;
5730;SDS011;2890;51.950;7.668;2023-03-01T09:25:50;7.40;;;5.75;;
5730;SDS011;2890;51.950;7.668;2023-03-01T09:28:16;6.88;;;5.82;;
5730;SDS011;2890;51.950;7.668;2023-03-01T09:30:43;6.85;;;5.90;;
5730;SDS011;2890;51.950;7.668;2023-03-01T09:33:09;7.80;;;5.57;;
5730;SDS011;2890;51.950;7.668;2023-03-01T09:35:39;7.53;;;6.45;;
5730;SDS011;2890;51.950;7.668;2023-03-01T09:38:11;8.73;;;6.10;;
5730;SDS011;2890;51.950;7.668;2023-03-01T09:40:41;8.15;;;6.35;;
5730;SDS011;2890;51.950;7.668;2023-03-01T09:43:12;6.78;;;5.80;;
5730;SDS011;2890;51.950;7.668;2023-03-01T09:45:43;6.72;;;5.95;;
5730;SDS011;2890;51.950;7.668;2023-03-01T09:48:12;8.05;;;6.35;;
5730;SDS011;2890;51.950;7.668;2023-03-01T09:50:42;10.23;;;7.30;;
5730;SDS011;2890;51.950;7.668;2023-03-01T09:53:12;7.03;;;5.85;;
5730;SDS011;2890;51.950;7.668;2023-03-01T09:55:42;7.63;;;6.20;;
5730;SDS011;2890;51.950;7.668;2023-03-01T09:58:19;8.10;;;6.10;;
5730;SDS011;2890;51.950;7.668;2023-03-01T10:00:54;7.05;;;6.18;;
5730;SDS011;2890;51.950;7.668;2023-03-01T10:03:23;10.13;;;6.18;;
5730;SDS011;2890;51.950;7.668;2023-03-01T10:05:55;7.55;;;6.28;;
5730;SDS011;2890;51.950;7.668;2023-03-01T10:08:26;7.45;;;6.10;;
5730;SDS011;2890;51.950;7.668;2023-03-01T10:10:57;11.02;;;6.43;;
5730;SDS011;2890;51.950;7.668;2023-03-01T10:13:25;8.60;;;7.05;;
5730;SDS011;2890;51.950;7.668;2023-03-01T10:15:56;9.13;;;6.70;;
5730;SDS011;2890;51.950;7.668;2023-03-01T10:18:24;8.73;;;6.68;;
5730;SDS011;2890;51.950;7.668;2023-03-01T10:20:53;10.05;;;7.10;;
5730;SDS011;2890;51.950;7.668;2023-03-01T10:23:24;12.05;;;7.35;;
5730;SDS011;2890;51.950;7.668;2023-03-01T10:25:54;10.98;;;7.38;;
5730;SDS011;2890;51.950;7.668;2023-03-01T10:28:29;9.50;;;7.38;;
5730;SDS011;2890;51.950;7.668;2023-03-01T10:30:57;9.75;;;7.20;;
5730;SDS011;2890;51.950;7.668;2023-03-01T10:33:25;9.73;;;7.63;;
5730;SDS011;2890;51.950;7.668;2023-03-01T10:35:53;8.18;;;6.68;;
5730;SDS011;2890;51.950;7.668;2023-03-01T10:38:20;8.53;;;6.43;;
5730;SDS011;2890;51.950;7.668;2023-03-01T10:40:50;9.43;;;6.50;;
5730;SDS011;2890;51.950;7.668;2023-03-01T10:43:20;10.45;;;7.03;;
5730;SDS011;2890;51.950;7.668;2023-03-01T10:45:47;8.70;;;7.13;;
5730;SDS011;2890;51.950;7.668;2023-03-01T10:48:14;8.10;;;6.68;;
5730;SDS011;2890;51.950;7.668;2023-03-01T10:50:43;9.35;;;6.43;;
5730;SDS011;2890;51.950;7.668;2023-03-01T10:53:21;9.93;;;7.35;;
5730;SDS011;2890;51.950;7.668;2023-03-01T10:55:56;9.97;;;7.17;;
5730;SDS011;2890;51.950;7.668;2023-03-01T10:58:26;8.50;;;6.53;;
5730;SDS011;2890;51.950;7.668;2023-03-01T11:00:54;9.63;;;7.10;;
5730;SDS011;2890;51.950;7.668;2023-03-01T11:03:22;10.87;;;7.43;;
5730;SDS011;2890;51.950;7.668;2023-03-01T11:05:58;11.13;;;7.22;;
5730;SDS011;2890;51.950;7.668;2023-03-01T11:08:30;8.73;;;6.60;;
5730;SDS011;2890;51.950;7.668;2023-03-01T11:11:18;8.90;;;6.85;;
5730;SDS011;2890;51.950;7.668;2023-03-01T11:13:51;10.43;;;6.80;;
5730;SDS011;2890;51.950;7.668;2023-03-01T11:16:23;11.90;;;7.50;;
5730;SDS011;2890;51.950;7.668;2023-03-01T11:19:03;9.45;;;6.95;;
5730;SDS011;2890;51.950;7.668;2023-03-01T11:21:40;9.50;;;7.03;;
5730;SDS011;2890;51.950;7.668;2023-03-01T11:24:09;8.70;;;7.15;;
5730;SDS011;2890;51.950;7.668;2023-03-01T11:26:38;10.07;;;7.75;;
5730;SDS011;2890;51.950;7.668;2023-03-01T11:29:11;8.85;;;7.03;;
5730;SDS011;2890;51.950;7.668;2023-03-01T11:31:39;8.48;;;6.72;;
5730;SDS011;2890;51.950;7.668;2023-03-01T11:34:09;8.07;;;6.82;;
5730;SDS011;2890;51.950;7.668;2023-03-01T11:36:40;9.13;;;6.95;;
5730;SDS011;2890;51.950;7.668;2023-03-01T11:39:12;8.35;;;6.95;;
5730;SDS011;2890;51.950;7.668;2023-03-01T11:41:44;8.55;;;6.95;;
5730;SDS011;2890;51.950;7.668;2023-03-01T11:44:21;9.68;;;7.30;;
5730;SDS011;2890;51.950;7.668;2023-03-01T11:46:53;7.73;;;6.77;;
5730;SDS011;2890;51.950;7.668;2023-03-01T11:49:35;8.90;;;6.85;;
5730;SDS011;2890;51.950;7.668;2023-03-01T11:52:13;9.93;;;6.77;;
5730;SDS011;2890;51.950;7.668;2023-03-01T11:54:50;9.57;;;6.50;;
5730;SDS011;2890;51.950;7.668;2023-03-01T11:57:42;10.80;;;7.47;;
5730;SDS011;2890;51.950;7.668;2023-03-01T12:00:17;10.60;;;6.73;;
5730;SDS011;2890;51.950;7.668;2023-03-01T12:02:55;9.70;;;6.83;;
5730;SDS011;2890;51.950;7.668;2023-03-01T12:05:46;10.00;;;6.83;;
5730;SDS011;2890;51.950;7.668;2023-03-01T12:08:24;7.73;;;6.13;;
5730;SDS011;2890;51.950;7.668;2023-03-01T12:10:56;8.93;;;6.37;;
5730;SDS011;2890;51.950;7.668;2023-03-01T12:13:33;9.07;;;6.37;;
5730;SDS011;2890;51.950;7.668;2023-03-01T12:16:16;10.07;;;6.17;;
5730;SDS011;2890;51.950;7.668;2023-03-01T12:18:51;8.27;;;6.43;;
5730;SDS011;2890;51.950;7.668;2023-03-01T12:21:27;7.20;;;6.20;;
5730;SDS011;2890;51.950;7.668;2023-03-01T12:24:11;7.97;;;5.67;;
5730;SDS011;2890;51.950;7.668;2023-03-01T12:26:50;9.77;;;6.10;;
5730;SDS011;2890;51.950;7.668;2023-03-01T12:29:23;9.33;;;5.80;;
5730;SDS011;2890;51.950;7.668;2023-03-01T12:32:06;9.38;;;6.20;;
5730;SDS011;2890;51.950;7.668;2023-03-01T12:34:47;9.40;;;5.87;;
5730;SDS011;2890;51.950;7.668;2023-03-01T12:37:22;7.63;;;5.67;;
5730;SDS011;2890;51.950;7.668;2023-03-01T12:40:02;7.00;;;5.43;;
5730;SDS011;2890;51.950;7.668;2023-03-01T12:42:39;8.40;;;5.33;;
5730;SDS011;2890;51.950;7.668;2023-03-01T12:45:22;8.07;;;5.33;;
5730;SDS011;2890;51.950;7.668;2023-03-01T12:48:02;7.13;;;5.63;;
5730;SDS011;2890;51.950;7.668;2023-03-01T12:50:37;7.33;;;5.43;;
5730;SDS011;2890;51.950;7.668;2023-03-01T12:53:07;7.23;;;5.50;;
5730;SDS011;2890;51.950;7.668;2023-03-01T12:55:45;11.73;;;5.63;;
5730;SDS011;2890;51.950;7.668;2023-03-01T12:58:15;9.53;;;5.50;;
5730;SDS011;2890;51.950;7.668;2023-03-01T13:00:52;6.80;;;5.63;;
5730;SDS011;2890;51.950;7.668;2023-03-01T13:03:32;6.03;;;5.20;;
5730;SDS011;2890;51.950;7.668;2023-03-01T13:06:08;7.47;;;4.87;;
5730;SDS011;2890;51.950;7.668;2023-03-01T13:08:39;6.90;;;5.00;;
5730;SDS011;2890;51.950;7.668;2023-03-01T13:11:18;5.93;;;4.60;;
5730;SDS011;2890;51.950;7.668;2023-03-01T13:13:46;6.40;;;4.73;;
5730;SDS011;2890;51.950;7.668;2023-03-01T13:19:15;8.57;;;5.03;;
5730;SDS011;2890;51.950;7.668;2023-03-01T13:21:44;6.40;;;5.00;;
5730;SDS011;2890;51.950;7.668;2023-03-01T13:24:24;7.33;;;5.27;;
5730;SDS011;2890;51.950;7.668;2023-03-01T13:27:08;6.23;;;5.17;;
5730;SDS011;2890;51.950;7.668;2023-03-01T13:29:43;7.77;;;5.13;;
5730;SDS011;2890;51.950;7.668;2023-03-01T13:32:19;7.30;;;5.70;;
5730;SDS011;2890;51.950;7.668;2023-03-01T13:34:55;10.63;;;5.53;;
5730;SDS011;2890;51.950;7.668;2023-03-01T13:37:26;6.37;;;5.50;;
5730;SDS011;2890;51.950;7.668;2023-03-01T13:39:56;7.28;;;4.88;;
5730;SDS011;2890;51.950;7.668;2023-03-01T13:42:36;9.03;;;5.20;;
5730;SDS011;2890;51.950;7.668;2023-03-01T13:45:12;8.87;;;5.63;;
5730;SDS011;2890;51.950;7.668;2023-03-01T13:47:44;6.93;;;5.53;;
5730;SDS011;2890;51.950;7.668;2023-03-01T13:50:19;7.93;;;5.80;;
5730;SDS011;2890;51.950;7.668;2023-03-01T13:52:49;5.77;;;5.20;;
5730;SDS011;2890;51.950;7.668;2023-03-01T13:55:18;7.70;;;4.80;;
5730;SDS011;2890;51.950;7.668;2023-03-01T13:57:47;7.30;;;5.40;;
5730;SDS011;2890;51.950;7.668;2023-03-01T14:03:10;5.57;;;4.70;;
5730;SDS011;2890;51.950;7.668;2023-03-01T14:05:39;5.33;;;4.53;;
5730;SDS011;2890;51.950;7.668;2023-03-01T14:08:18;7.20;;;5.20;;
5730;SDS011;2890;51.950;7.668;2023-03-01T14:10:49;6.50;;;5.47;;
5730;SDS011;2890;51.950;7.668;2023-03-01T14:13:39;6.67;;;5.27;;
5730;SDS011;2890;51.950;7.668;2023-03-01T14:16:21;7.60;;;5.50;;
5730;SDS011;2890;51.950;7.668;2023-03-01T14:18:53;6.07;;;4.93;;
5730;SDS011;2890;51.950;7.668;2023-03-01T14:21:25;8.97;;;5.37;;
5730;SDS011;2890;51.950;7.668;2023-03-01T14:23:55;8.47;;;5.63;;
5730;SDS011;2890;51.950;7.668;2023-03-01T14:26:22;7.73;;;5.30;;
5730;SDS011;2890;51.950;7.668;2023-03-01T14:28:52;7.30;;;4.83;;
5730;SDS011;2890;51.950;7.668;2023-03-01T14:31:31;8.03;;;5.10;;
5730;SDS011;2890;51.950;7.668;2023-03-01T14:34:00;7.43;;;4.83;;
5730;SDS011;2890;51.950;7.668;2023-03-01T14:36:30;5.93;;;4.67;;
5730;SDS011;2890;51.950;7.668;2023-03-01T14:39:00;5.90;;;5.07;;
5730;SDS011;2890;51.950;7.668;2023-03-01T14:41:32;7.77;;;5.20;;
5730;SDS011;2890;51.950;7.668;2023-03-01T14:44:01;6.50;;;4.97;;
5730;SDS011;2890;51.950;7.668;2023-03-01T14:46:31;6.37;;;4.73;;
5730;SDS011;2890;51.950;7.668;2023-03-01T14:49:01;5.47;;;4.77;;
5730;SDS011;2890;51.950;7.668;2023-03-01T14:51:32;6.37;;;4.50;;
5730;SDS011;2890;51.950;7.668;2023-03-01T14:54:01;6.77;;;4.43;;
5730;SDS011;2890;51.950;7.668;2023-03-01T14:56:28;6.90;;;4.70;;
5730;SDS011;2890;51.950;7.668;2023-03-01T14:59:11;6.47;;;4.30;;
5730;SDS011;2890;51.950;7.668;2023-03-01T15:01:39;5.97;;;4.40;;
5730;SDS011;2890;51.950;7.668;2023-03-01T15:04:06;5.80;;;4.53;;
5730;SDS011;2890;51.950;7.668;2023-03-01T15:06:41;6.53;;;4.43;;
5730;SDS011;2890;51.950;7.668;2023-03-01T15:09:11;6.20;;;4.47;;
5730;SDS011;2890;51.950;7.668;2023-03-01T15:11:43;7.87;;;4.43;;
5730;SDS011;2890;51.950;7.668;2023-03-01T15:14:26;7.07;;;4.67;;
5730;SDS011;2890;51.950;7.668;2023-03-01T15:16:53;8.60;;;4.17;;
5730;SDS011;2890;51.950;7.668;2023-03-01T15:19:20;6.93;;;4.60;;
5730;SDS011;2890;51.950;7.668;2023-03-01T15:21:51;5.63;;;4.00;;
5730;SDS011;2890;51.950;7.668;2023-03-01T15:24:20;6.60;;;4.67;;
5730;SDS011;2890;51.950;7.668;2023-03-01T15:26:50;6.57;;;4.23;;
5730;SDS011;2890;51.950;7.668;2023-03-01T15:29:21;6.73;;;5.00;;
5730;SDS011;2890;51.950;7.668;2023-03-01T15:31:55;6.77;;;4.20;;